Thursday, June 29, 2017, 10:14 AM EDT
Back to Local

KAGC, Pittsburgh Allegheny Cty.

Location: West Mifflin, PA, United States Lat: 40.35
Local Time: 10:14 AM EDT (14:14 GMT) Lon: -79.917
Time Zone: US/Eastern Elev: 1253 ft

Show me the last for .
Show Decoded

2017-06-29 09:53 METAR KAGC 291353Z 20008G17KT 10SM FEW055 22/14 A3007 RMK AO2 SLP181 T02220139 =
2017-06-29 08:53 METAR KAGC 291253Z 19010KT 10SM SCT070 19/13 A3009 RMK AO2 SLP189 T01940128 =
2017-06-29 07:53 METAR KAGC 291153Z 19010KT 10SM CLR 17/11 A3009 RMK AO2 SLP188 T01720111 10172
                 20144 51004 =
2017-06-29 06:53 METAR KAGC 291053Z 18008KT 10SM CLR 16/10 A3009 RMK AO2 SLP188 T01560100 =
2017-06-29 05:53 METAR KAGC 290953Z AUTO 18008KT 10SM CLR 16/09 A3008 RMK AO2 SLP186 T01560094 =
2017-06-29 04:53 METAR KAGC 290853Z AUTO 17007KT 10SM CLR 16/10 A3008 RMK AO2 SLP184 T01560100
                 55002 =
2017-06-29 03:53 METAR KAGC 290753Z AUTO 17007KT 10SM CLR 16/10 A3006 RMK AO2 SLP180 T01610100 =
2017-06-29 02:53 METAR KAGC 290653Z AUTO 17007KT 10SM CLR 16/10 A3007 RMK AO2 SLP182 T01560100 =
2017-06-29 01:53 METAR KAGC 290553Z AUTO 17004KT 10SM CLR 17/11 A3009 RMK AO2 SLP186 T01670106
                 10217 20167 50000 =
2017-06-29 00:53 METAR KAGC 290453Z AUTO 18005KT 10SM CLR 17/11 A3009 RMK AO2 SLP189 T01720106
                 402330100 =
2017-06-28 23:53 METAR KAGC 290353Z AUTO 17004KT 10SM CLR 17/10 A3009 RMK AO2 SLP188 T01720100 =
2017-06-28 22:53 METAR KAGC 290253Z AUTO 18006KT 10SM CLR 18/11 A3008 RMK AO2 SLP187 T01830106
                 56007 =
2017-06-28 21:53 METAR KAGC 290153Z AUTO 17005KT 10SM CLR 19/11 A3009 RMK AO2 SLP190 T01890106 =
2017-06-28 20:53 METAR KAGC 290053Z AUTO 18006KT 10SM CLR 20/10 A3009 RMK AO2 SLP188 T02000100 =
2017-06-28 19:53 METAR KAGC 282353Z AUTO 20005KT 10SM CLR 22/09 A3011 RMK AO2 SLP196 T02170094
                 10233 20217 56008 =
2017-06-28 18:53 METAR KAGC 282253Z AUTO 17007KT 10SM CLR 23/11 A3011 RMK AO2 SLP197 T02280106 =
2017-06-28 17:53 METAR KAGC 282153Z AUTO 20008KT 10SM CLR 23/09 A3012 RMK AO2 SLP201 T02280089 =
2017-06-28 16:53 METAR KAGC 282053Z 17005KT 10SM CLR 23/09 A3013 RMK AO2 SLP205 T02330089 58014 =
2017-06-28 15:53 METAR KAGC 281953Z 22007KT 10SM CLR 23/08 A3015 RMK AO2 SLP210 T02280078 =
2017-06-28 14:53 METAR KAGC 281853Z 10SM CLR 23/07 A3016 RMK AO2 SLP213 T02330072 =
2017-06-28 13:53 METAR KAGC 281753Z VRB05KT 10SM CLR 23/07 A3017 RMK AO2 SLP217 T02330072 10233
                 20128 58007 =
2017-06-28 12:53 METAR KAGC 281653Z 25008KT 10SM FEW060 22/08 A3019 RMK AO2 SLP222 T02220078 =
2017-06-28 11:53 METAR KAGC 281553Z 10SM FEW050 22/08 A3020 RMK AO2 SLP225 T02170078 =
2017-06-28 10:53 METAR KAGC 281453Z VRB03KT 10SM CLR 21/08 A3020 RMK AO2 SLP226 T02060083 50009 =

Support USWX by starting your Amazon purchase here.